• Join FlightAware (Why Join?)
  • Login
  • US Flag 
08:52AM EDT


 

Airport Tracker/Info


-or-


 

Live Flight TrackerFlight Track Log ✈ AAY943 ✈ 05-Jul-2013 ✈ KLEX - KFLL

Flight Track Log - Related Links

Times and Time Zones

All times are in EDT time to prevent confusion due to time zone crossing. See the AAY943 flight status page for this flight to view local times or setup timezone preferences in your user account.

Time Position Orientation Groundspeed Altitude Reporting Facility
EDT Latitude Longitude Course Direction KTS MPH feet Rate Location/Type
06:25PM 38.0092 -84.6342 215° Southwest 146 168 3,000  Level Indianapolis Center
06:26PM 37.9617 -84.6758 215° Southwest 164 189 4,500 2,280 Climbing Indianapolis Center
06:27PM 37.9003 -84.7253 212° Southwest 221 254 7,700 2,760 Climbing Indianapolis Center
06:28PM 37.8406 -84.7844 218° Southwest 261 300 10,200 2,400 Climbing Indianapolis Center
06:29PM 37.7783 -84.8567 223° Southwest 294 338 12,700 2,340 Climbing Indianapolis Center
06:30PM 37.7169 -84.9269 222° Southwest 297 342 15,100 2,160 Climbing Indianapolis Center
06:31PM 37.6528 -85.0014 223° Southwest 311 358 17,200 1,560 Climbing Indianapolis Center
06:32PM 37.5839 -85.0831 223° Southwest 333 383 18,300 1,200 Climbing Indianapolis Center
06:33PM 37.4703 -85.1250 196° South 389 448 19,700 1,500 Climbing Indianapolis Center
06:34PM 37.3628 -85.0833 163° South 406 467 21,400 1,560 Climbing Indianapolis Center
06:36PM 37.2636 -85.0047 148° Southeast 421 484 22,900 780 Climbing Indianapolis Center
06:37PM 37.1639 -84.9183 145° Southeast 432 497 23,000 60 Climbing Indianapolis Center
06:38PM 37.0639 -84.8319 145° Southeast 436 502 23,100 960 Climbing Indianapolis Center
06:39PM 36.9656 -84.7508 147° Southeast 436 502 25,000 1,560 Climbing Indianapolis Center
06:40PM 36.8664 -84.6706 147° Southeast 426 490 26,300 1,320 Climbing Indianapolis Center
06:41PM 36.7475 -84.5753 147° Southeast 423 487 27,800 1,260 Climbing Indianapolis Center
06:42PM 36.6494 -84.4967 147° Southeast 424 488 28,900 1,020 Climbing Indianapolis Center
06:43PM 36.5528 -84.4153 146° Southeast 422 486 29,900 1,020 Climbing Indianapolis Center
06:44PM 36.4531 -84.3339 147° Southeast 419 482 31,000 900 Climbing Indianapolis Center
06:45PM 36.3542 -84.2536 147° Southeast 421 484 31,800 720 Climbing Indianapolis Center
06:46PM 36.2561 -84.1767 148° Southeast 417 480 32,500 540 Climbing Indianapolis Center
06:47PM 36.1589 -84.0972 147° Southeast 416 479 33,000 240 Climbing Indianapolis Center
06:48PM 36.0603 -84.0183 147° Southeast 418 481 33,000  Level Indianapolis Center
06:49PM 35.9619 -83.9403 147° Southeast 419 482 33,000  Level Indianapolis Center
06:50PM 35.8392 -83.8747 157° South 417 480 33,000  Level Atlanta Center
06:51PM 35.7264 -83.8417 167° South 410 472 33,000  Level Atlanta Center
06:52PM 35.6139 -83.8139 169° South 410 472 33,000  Level Atlanta Center
06:53PM 35.5011 -83.7811 167° South 415 478 33,000  Level Atlanta Center
06:54PM 35.3800 -83.7408 165° South 410 472 33,000  Level Atlanta Center
06:55PM 35.2692 -83.7081 166° South 410 472 33,000  Level Atlanta Center
06:56PM 35.1544 -83.6756 167° South 410 472 33,000  Level Atlanta Center
06:57PM 35.0436 -83.6456 168° South 410 472 33,000  Level Atlanta Center
06:58PM 34.9308 -83.6106 166° South 410 472 33,000  Level Atlanta Center
06:59PM 34.8203 -83.5758 166° South 410 472 33,000  Level Atlanta Center
07:00PM 34.7075 -83.5461 168° South 415 478 33,000  Level Atlanta Center
07:01PM 34.5944 -83.5114 166° South 415 478 33,000  Level Atlanta Center
07:02PM 34.4839 -83.4769 166° South 420 483 33,000  Level Atlanta Center
07:03PM 34.3667 -83.4422 166° South 415 478 33,000  Level Atlanta Center
07:04PM 34.2664 -83.4128 166° South 415 478 33,000  Level Atlanta Center
07:05PM 34.1514 -83.3836 168° South 421 484 33,000  Level Atlanta Center
07:06PM 34.0364 -83.3494 166° South 427 491 33,000  Level Atlanta Center
07:07PM 33.9194 -83.3153 166° South 427 491 33,000  Level Atlanta Center
07:08PM 33.8125 -83.2511 153° Southeast 435 501 33,000  Level Atlanta Center
07:09PM 33.7014 -83.1747 150° Southeast 424 488 33,000  Level Atlanta Center
07:10PM 33.5944 -83.1036 151° Southeast 435 501 33,000 240 Level Atlanta Center
07:11PM 33.4875 -83.0325 151° Southeast 441 507 33,500 480 Climbing Atlanta Center
07:12PM 33.3844 -82.9617 150° Southeast 436 502 34,000 240 Climbing Atlanta Center
07:13PM 33.2775 -82.8958 153° Southeast 436 502 34,000  Level Atlanta Center
07:14PM 33.1706 -82.8328 154° Southeast 431 496 34,000  Level Atlanta Center
07:15PM 33.0614 -82.7797 158° South 426 490 34,000  Level Atlanta Center
07:16PM 32.9503 -82.7294 159° South 426 490 34,000  Level Atlanta Center
07:17PM 32.8389 -82.6742 157° South 426 490 34,000  Level Atlanta Center
07:18PM 32.7236 -82.6167 157° South 436 502 34,000  Level Atlanta Center
07:19PM 32.6122 -82.5667 159° South 436 502 34,000  Level Atlanta Center
07:21PM 32.3558 -82.4400 157° South 435 501 34,000  Level Jacksonville Center
07:22PM 32.2450 -82.3889 159° South 435 501 34,000  Level Jacksonville Center
07:23PM 32.1256 -82.3308 158° South 435 501 34,000  Level Jacksonville Center
07:24PM 32.0083 -82.2800 160° South 441 507 34,000  Level Jacksonville Center
07:25PM 31.8828 -82.2222 159° South 447 514 34,000  Level Jacksonville Center
07:26PM 31.7742 -82.1717 158° South 456 525 34,000  Level Jacksonville Center
07:27PM 31.6464 -82.1092 157° South 450 518 34,000 -60 Level Jacksonville Center
07:28PM 31.5417 -82.0614 159° South 450 518 33,900  Descending Jacksonville Center
07:29PM 31.4222 -82.0064 159° South 450 518 34,000  Climbing Jacksonville Center
07:30PM 31.3050 -81.9564 160° South 450 518 33,900 -60 Descending Jacksonville Center
07:31PM 31.1919 -81.9067 159° South 450 518 33,900  Level Jacksonville Center
07:32PM 31.0744 -81.8472 157° South 450 518 33,900  Level Jacksonville Center
07:33PM 30.9569 -81.7953 159° South 450 518 33,900  Level Jacksonville Center
07:34PM 30.8397 -81.7383 157° South 450 518 33,900  Level Jacksonville Center
07:35PM 30.7222 -81.6867 159° South 450 518 33,900  Level Jacksonville Center
07:36PM 30.6069 -81.6303 157° South 455 524 33,900  Level Jacksonville Center
07:37PM 30.4872 -81.5764 159° South 455 524 33,900  Level Jacksonville Center
07:38PM 30.3656 -81.5228 159° South 455 524 33,900  Level Jacksonville Center
07:39PM 30.2439 -81.4717 160° South 455 524 33,900  Level Jacksonville Center
07:40PM 30.1119 -81.4256 163° South 455 524 33,900  Level Jacksonville Center
07:41PM 29.9881 -81.3769 161° South 460 529 33,900  Level Jacksonville Center
07:42PM 29.8667 -81.3308 162° South 460 529 33,900  Level Jacksonville Center
07:43PM 29.7489 -81.2756 158° South 465 535 33,900  Level Jacksonville Center
07:44PM 29.6414 -81.1983 148° Southeast 460 529 33,900  Level Jacksonville Center
07:47PM 29.4192 -81.0128 144° Southeast 453 521 34,000  Climbing Miami Center
07:48PM 29.3150 -80.9328 146° Southeast 453 521 33,900 -60 Descending Miami Center
07:49PM 29.2089 -80.8575 148° Southeast 453 521 33,900  Level Miami Center
07:50PM 29.0958 -80.7894 152° Southeast 448 516 33,900  Level Miami Center
07:51PM 28.9872 -80.7261 153° Southeast 448 516 33,900  Level Miami Center
07:52PM 28.8803 -80.6656 154° Southeast 441 507 34,000  Climbing Miami Center
07:53PM 28.7797 -80.6028 151° Southeast 441 507 34,000  Level Miami Center
07:54PM 28.6708 -80.5425 154° Southeast 441 507 34,000  Level Miami Center
07:55PM 28.5514 -80.4747 154° Southeast 441 507 34,000  Level Miami Center
07:56PM 28.4425 -80.4122 153° Southeast 441 507 34,000  Level Miami Center
07:57PM 28.3375 -80.3522 153° Southeast 435 501 34,000  Level Miami Center
07:58PM 28.2364 -80.3044 157° South 440 506 34,000  Level Miami Center
07:59PM 28.1228 -80.2561 159° South 440 506 34,000  Level Miami Center
08:00PM 27.9986 -80.2053 160° South 435 501 34,000  Level Miami Center
08:01PM 27.8850 -80.1550 159° South 435 501 34,000 -180 Level Miami Center
08:02PM 27.7692 -80.1072 160° South 440 506 33,700 -1,200 Descending Miami Center
08:03PM 27.6533 -80.0639 162° South 440 506 31,700 -2,100 Descending Miami Center
08:04PM 27.5436 -80.0189 160° South 435 501 29,600 -2,100 Descending Miami Center
08:05PM 27.4361 -79.9736 160° South 429 494 27,500 -2,100 Descending Miami Center
08:06PM 27.3325 -79.9264 158° South 422 486 25,400 -1,800 Descending Miami Center
08:07PM 27.2269 -79.8864 161° South 412 474 23,900 -1,140 Descending Miami Center
08:08PM 27.1464 -79.8469 156° South 376 433 23,200 -1,320 Descending Miami Center
08:09PM 27.0489 -79.8094 161° South 366 421 21,300 -2,040 Descending Miami Center
08:10PM 26.9517 -79.7672 159° South 356 410 19,200 -1,920 Descending Miami Center
08:11PM 26.8625 -79.7278 158° South 351 404 17,500 -1,800 Descending Miami Center
08:12PM 26.7756 -79.6956 162° South 336 387 15,700 -1,980 Descending Miami Center
08:13PM 26.6853 -79.7142 190° South 318 366 13,600 -1,980 Descending Miami Center
08:14PM 26.6011 -79.7539 203° Southwest 324 373 11,800 -1,800 Descending Miami Center
08:15PM 26.5186 -79.7961 205° Southwest 334 384 10,100 -1,800 Descending Miami Center
08:16PM 26.4450 -79.8314 203° Southwest 311 358 8,300 -1,080 Descending Miami Center
08:17PM 26.3711 -79.8689 204° Southwest 295 339 8,000 -780 Descending Miami Center
08:18PM 26.3092 -79.9253 219° Southwest 295 339 6,800 -1,080 Descending Miami Center
08:19PM 26.2558 -79.9864 226° Southwest 289 333 5,900 -480 Descending Miami Center
08:20PM 26.1961 -80.0406 219° Southwest 284 327 5,900 -300 Level Miami Center
08:21PM 26.1589 -80.1158 241° Southwest 279 321 5,300 -1,200 Descending Miami Center
08:22PM 26.1481 -80.2289 264° West 285 328 3,300 -1,500 Descending Miami Center
08:23PM 26.1481 -80.3122 270° West 269 310 1,900 -660 Descending Miami Center
08:24PM 26.1097 -80.3528 224° Southwest 168 193 2,000 -60 Climbing Miami Center
08:25PM 26.0789 -80.3219 138° Southeast 163 188 1,800 -120 Descending Miami Center
08:26PM 26.0736 -80.2800 98° East 160 184 1,800 -360 Level Miami Center
08:27PM 26.0747 -80.2361 88° East 116 133 1,100 -660 Descending Miami Center
08:28PM 26.0736 -80.1967 92° East 125 144 500 -600 Descending Miami Center
08:30PM 26.0667 -80.1500 103° East  Level FlightAware Approximate